createdAt,value
2022-10-07T00:01:24.526Z,7.06
2022-10-07T00:03:56.698Z,7.03
2022-10-07T00:06:28.520Z,7.01
2022-10-07T00:09:01.723Z,6.99
2022-10-07T00:11:34.178Z,6.96
2022-10-07T00:14:07.736Z,6.94
2022-10-07T00:16:41.910Z,6.93
2022-10-07T00:19:15.144Z,6.91
2022-10-07T00:21:47.265Z,6.89
2022-10-07T00:24:19.095Z,6.86
2022-10-07T00:26:51.743Z,6.84
2022-10-07T00:30:05.903Z,6.85
2022-10-07T00:32:37.725Z,6.83
2022-10-07T00:35:10.738Z,6.91
2022-10-07T00:37:43.616Z,7.00
2022-10-07T00:40:16.380Z,7.09
2022-10-07T00:42:48.293Z,7.16
2022-10-07T00:45:21.334Z,7.23
2022-10-07T00:47:53.262Z,7.28
2022-10-07T00:50:28.320Z,7.33
2022-10-07T00:53:03.579Z,7.37
2022-10-07T00:55:36.393Z,7.40
2022-10-07T00:58:09.686Z,7.42
2022-10-07T01:00:42.600Z,7.44
2022-10-07T01:03:16.858Z,7.45
2022-10-07T01:05:48.619Z,7.45
2022-10-07T01:08:20.930Z,7.44
2022-10-07T01:11:14.072Z,7.45
2022-10-07T01:13:57.572Z,7.46
2022-10-07T01:16:35.923Z,7.47
2022-10-07T01:19:23.254Z,7.49
2022-10-07T01:22:04.934Z,7.51
2022-10-07T01:24:44.181Z,7.53
2022-10-07T01:27:18.695Z,7.54
2022-10-07T01:29:56.944Z,7.56
2022-10-07T01:32:33.556Z,7.58
2022-10-07T01:35:12.474Z,7.60
2022-10-07T01:37:50.160Z,7.61
2022-10-07T01:40:24.670Z,7.60
2022-10-07T01:42:58.329Z,7.60
2022-10-07T01:45:32.909Z,7.61
2022-10-07T01:48:04.733Z,7.61
2022-10-07T01:50:38.783Z,7.57
2022-10-07T01:53:27.766Z,7.56
2022-10-07T01:56:12.835Z,7.53
2022-10-07T01:58:59.186Z,7.51
2022-10-07T02:01:40.981Z,7.51
2022-10-07T02:04:33.403Z,7.50
2022-10-07T02:07:16.618Z,7.47
2022-10-07T02:09:53.028Z,7.46
2022-10-07T02:12:33.524Z,7.44
2022-10-07T02:15:12.173Z,7.40
2022-10-07T02:17:47.847Z,7.38
2022-10-07T02:20:22.297Z,7.37
2022-10-07T02:22:55.982Z,7.38
2022-10-07T02:25:33.263Z,7.38
2022-10-07T02:28:07.993Z,7.38
2022-10-07T02:30:41.448Z,7.37
2022-10-07T02:33:15.422Z,7.37
2022-10-07T02:35:52.302Z,7.34
2022-10-07T02:38:25.686Z,7.31
2022-10-07T02:41:06.762Z,7.29
2022-10-07T02:43:45.468Z,7.27
2022-10-07T02:46:23.646Z,7.24
2022-10-07T02:48:59.932Z,7.22
2022-10-07T02:51:36.536Z,7.22
2022-10-07T02:54:09.178Z,7.20
2022-10-07T02:56:43.217Z,7.21
2022-10-07T02:59:16.786Z,7.20
2022-10-07T03:01:54.902Z,7.20
2022-10-07T03:04:26.968Z,7.22
2022-10-07T03:07:01.218Z,7.23
2022-10-07T03:09:34.087Z,7.24
2022-10-07T03:12:08.833Z,7.25
2022-10-07T03:14:41.090Z,7.26
2022-10-07T03:17:13.269Z,7.27
2022-10-07T03:19:45.105Z,7.28
2022-10-07T03:22:17.495Z,7.27
2022-10-07T03:24:49.407Z,7.27
2022-10-07T03:27:21.988Z,7.27
2022-10-07T03:29:55.220Z,7.28
2022-10-07T03:32:28.457Z,7.28
2022-10-07T03:35:01.794Z,7.28
2022-10-07T03:37:34.959Z,7.27
2022-10-07T03:40:07.994Z,7.27
2022-10-07T03:42:40.266Z,7.25
2022-10-07T03:45:13.365Z,7.23
2022-10-07T03:47:45.324Z,7.22
2022-10-07T03:50:17.865Z,7.21
2022-10-07T03:52:49.735Z,7.22
2022-10-07T03:55:22.072Z,7.23
2022-10-07T03:57:58.547Z,7.23
2022-10-07T04:00:32.196Z,7.24
2022-10-07T04:03:04.540Z,7.23
2022-10-07T04:05:37.235Z,7.23
2022-10-07T04:08:12.309Z,7.21
2022-10-07T04:10:44.587Z,7.19
2022-10-07T04:13:16.550Z,7.19
2022-10-07T04:15:48.949Z,7.19
2022-10-07T04:18:20.889Z,7.18
2022-10-07T04:20:52.911Z,7.17
2022-10-07T04:23:26.317Z,7.12
2022-10-07T04:25:58.231Z,7.12
2022-10-07T04:28:30.185Z,7.11
2022-10-07T04:31:09.019Z,7.10
2022-10-07T04:33:44.519Z,7.10
2022-10-07T04:36:18.217Z,7.08
2022-10-07T04:39:06.085Z,7.05
2022-10-07T04:41:43.035Z,7.01
2022-10-07T04:44:19.308Z,7.02
2022-10-07T04:47:06.546Z,7.02
2022-10-07T04:49:39.137Z,7.01
2022-10-07T04:52:12.164Z,6.99
2022-10-07T04:54:44.964Z,6.97
2022-10-07T04:57:17.846Z,6.96
2022-10-07T04:59:49.998Z,6.94
2022-10-07T05:02:24.816Z,6.93
2022-10-07T05:04:56.834Z,6.93
2022-10-07T05:07:29.632Z,6.93
2022-10-07T05:10:01.428Z,6.92
2022-10-07T05:12:33.279Z,6.92
2022-10-07T05:15:07.113Z,6.91
2022-10-07T05:17:41.183Z,6.90
2022-10-07T05:20:13.617Z,6.89
2022-10-07T05:22:45.947Z,6.90
2022-10-07T05:25:17.954Z,6.90
2022-10-07T05:27:55.080Z,6.89
2022-10-07T05:30:26.980Z,6.89
2022-10-07T05:32:59.911Z,6.90
2022-10-07T05:35:32.382Z,6.91
2022-10-07T05:38:04.510Z,6.91
2022-10-07T05:40:36.429Z,6.93
2022-10-07T05:43:10.842Z,6.94
2022-10-07T05:45:43.409Z,6.93
2022-10-07T05:48:15.412Z,6.94
2022-10-07T05:50:50.910Z,6.95
2022-10-07T05:53:23.123Z,6.96
2022-10-07T05:55:55.870Z,6.97
2022-10-07T05:58:29.928Z,6.97
2022-10-07T06:01:05.500Z,7.00
2022-10-07T06:03:39.854Z,7.03
2022-10-07T06:06:12.004Z,7.06
2022-10-07T06:08:43.918Z,7.09
2022-10-07T06:11:35.619Z,7.13
2022-10-07T06:14:08.072Z,7.15
2022-10-07T06:16:40.075Z,7.19
2022-10-07T06:19:22.693Z,7.21
2022-10-07T06:21:56.695Z,7.24
2022-10-07T06:24:29.012Z,7.26
2022-10-07T06:27:01.004Z,7.29
2022-10-07T06:29:34.375Z,7.32
2022-10-07T06:32:06.963Z,7.36
2022-10-07T06:34:39.042Z,7.41
2022-10-07T06:37:11.047Z,7.47
2022-10-07T06:39:42.889Z,7.51
2022-10-07T06:42:15.023Z,7.56
2022-10-07T06:45:02.030Z,7.61
2022-10-07T06:47:34.743Z,7.64
2022-10-07T06:50:07.629Z,7.69
2022-10-07T06:52:43.313Z,7.74
2022-10-07T06:55:16.245Z,7.77
2022-10-07T06:57:48.341Z,7.83
2022-10-07T07:00:22.677Z,7.90
2022-10-07T07:02:55.151Z,7.94
2022-10-07T07:05:27.234Z,8.01
2022-10-07T07:08:00.755Z,8.07
2022-10-07T07:10:37.464Z,8.13
2022-10-07T07:13:09.953Z,8.18
2022-10-07T07:15:43.018Z,8.25
2022-10-07T07:18:15.604Z,8.32
2022-10-07T07:20:47.473Z,8.41
2022-10-07T07:23:19.356Z,8.47
2022-10-07T07:25:51.163Z,8.56
2022-10-07T07:28:23.202Z,8.63
2022-10-07T07:30:55.484Z,8.72
2022-10-07T07:33:27.470Z,8.81
2022-10-07T07:35:59.744Z,8.90
2022-10-07T07:38:31.634Z,9.01
2022-10-07T07:41:08.310Z,9.11
2022-10-07T07:43:40.226Z,9.23
2022-10-07T07:46:12.661Z,9.34
2022-10-07T07:48:44.578Z,9.45
2022-10-07T07:51:17.566Z,9.59
2022-10-07T07:53:50.720Z,9.71
2022-10-07T07:56:23.355Z,9.84
2022-10-07T07:58:56.234Z,9.95
2022-10-07T08:01:32.112Z,10.07
2022-10-07T08:04:05.309Z,10.18
2022-10-07T08:06:37.716Z,10.29
2022-10-07T08:09:09.929Z,10.39
2022-10-07T08:11:45.356Z,10.52
2022-10-07T08:14:19.395Z,10.63
2022-10-07T08:16:55.567Z,10.73
2022-10-07T08:19:27.657Z,10.84
2022-10-07T08:21:59.821Z,10.96
2022-10-07T08:24:32.190Z,11.09
2022-10-07T08:27:04.133Z,11.21
2022-10-07T08:29:38.883Z,11.32
2022-10-07T08:32:11.111Z,11.42
2022-10-07T08:34:43.641Z,11.56
2022-10-07T08:37:15.667Z,11.66
2022-10-07T08:39:47.455Z,11.77
2022-10-07T08:42:26.853Z,11.88
2022-10-07T08:45:02.134Z,11.99
2022-10-07T08:47:39.910Z,12.09
2022-10-07T08:50:36.161Z,12.19
2022-10-07T08:53:16.867Z,12.27
2022-10-07T08:55:53.267Z,12.37
2022-10-07T08:58:50.627Z,12.46
2022-10-07T09:01:35.328Z,12.55
2022-10-07T09:04:17.134Z,12.65
2022-10-07T09:06:54.498Z,12.74
2022-10-07T09:09:31.932Z,12.82
2022-10-07T09:12:06.216Z,12.91
2022-10-07T09:14:41.486Z,12.98
2022-10-07T09:17:18.158Z,13.07
2022-10-07T09:19:54.597Z,13.15
2022-10-07T09:22:33.403Z,13.25
2022-10-07T09:25:21.375Z,13.34
2022-10-07T09:27:54.630Z,13.39
2022-10-07T09:30:29.639Z,13.46
2022-10-07T09:33:01.954Z,13.55
2022-10-07T09:35:34.105Z,13.64
2022-10-07T09:38:09.284Z,13.72
2022-10-07T09:41:00.245Z,13.79
2022-10-07T09:43:33.746Z,13.86
2022-10-07T09:46:05.813Z,13.93
2022-10-07T09:48:37.771Z,14.00
2022-10-07T09:51:18.189Z,14.08
2022-10-07T09:54:02.837Z,14.14
2022-10-07T09:56:42.928Z,14.20
2022-10-07T09:59:21.651Z,14.24
2022-10-07T10:01:55.926Z,14.30
2022-10-07T10:04:32.707Z,14.33
2022-10-07T10:07:08.585Z,14.37
2022-10-07T10:09:49.555Z,14.46
2022-10-07T10:12:23.289Z,14.53
2022-10-07T10:14:57.157Z,14.57
2022-10-07T10:17:39.175Z,14.63
2022-10-07T10:20:31.328Z,14.68
2022-10-07T10:23:24.107Z,14.73
2022-10-07T10:26:33.309Z,14.75
2022-10-07T10:29:16.787Z,14.79
2022-10-07T10:32:15.900Z,14.96
2022-10-07T10:34:56.313Z,15.12
2022-10-07T10:37:36.263Z,15.18
2022-10-07T10:40:19.668Z,15.27
2022-10-07T10:43:03.014Z,15.31
2022-10-07T10:45:41.849Z,15.34
2022-10-07T10:48:30.047Z,15.41
2022-10-07T10:51:13.505Z,15.47
2022-10-07T10:53:56.766Z,15.48
2022-10-07T10:56:39.397Z,15.54
2022-10-07T10:59:30.285Z,15.62
2022-10-07T11:02:20.234Z,15.63
2022-10-07T11:04:58.665Z,15.70
2022-10-07T11:07:34.232Z,15.75
2022-10-07T11:10:19.170Z,15.80
2022-10-07T11:12:57.159Z,15.84
2022-10-07T11:15:33.811Z,15.87
2022-10-07T11:18:12.706Z,15.83
2022-10-07T11:20:48.462Z,15.83
2022-10-07T11:23:30.182Z,15.81
2022-10-07T11:26:10.619Z,15.80
2022-10-07T11:28:44.575Z,15.80
2022-10-07T11:31:27.313Z,15.79
2022-10-07T11:34:13.150Z,15.80
2022-10-07T11:36:53.911Z,15.82
2022-10-07T11:39:26.068Z,15.85
2022-10-07T11:42:04.889Z,15.89
2022-10-07T11:44:44.324Z,15.94
2022-10-07T11:47:22.136Z,15.91
2022-10-07T11:49:58.904Z,15.94
2022-10-07T11:52:43.388Z,15.98
2022-10-07T11:55:27.025Z,15.99
2022-10-07T11:58:03.882Z,16.01
2022-10-07T12:00:39.475Z,16.02
2022-10-07T12:03:48.700Z,16.03
2022-10-07T12:06:21.312Z,16.04
2022-10-07T12:08:53.202Z,16.05
2022-10-07T12:11:48.920Z,16.05
2022-10-07T12:14:44.253Z,16.06
2022-10-07T12:17:30.482Z,16.05
2022-10-07T12:20:46.417Z,16.08
2022-10-07T12:24:10.915Z,16.07
2022-10-07T12:26:48.281Z,16.04
2022-10-07T12:29:34.058Z,16.04
2022-10-07T12:32:26.127Z,16.05
2022-10-07T12:34:58.133Z,16.05
2022-10-07T12:37:50.517Z,16.07
2022-10-07T12:40:30.866Z,16.08
2022-10-07T12:43:19.122Z,16.07
2022-10-07T12:45:51.464Z,16.07
2022-10-07T12:48:26.070Z,16.07
2022-10-07T12:50:58.580Z,16.10
2022-10-07T12:53:37.548Z,16.12
2022-10-07T12:56:10.311Z,16.11
2022-10-07T12:59:19.677Z,16.13
2022-10-07T13:02:20.671Z,16.10
2022-10-07T13:05:28.736Z,16.09
2022-10-07T13:08:24.493Z,16.09
2022-10-07T13:11:18.984Z,16.09
2022-10-07T13:13:57.926Z,16.04
2022-10-07T13:16:37.924Z,16.06
2022-10-07T13:19:23.602Z,16.05
2022-10-07T13:22:02.052Z,16.03
2022-10-07T13:24:34.472Z,16.03
2022-10-07T13:27:10.595Z,16.06
2022-10-07T13:29:42.486Z,16.11
2022-10-07T13:32:24.260Z,16.12
2022-10-07T13:34:57.543Z,16.16
2022-10-07T13:37:34.348Z,16.18
2022-10-07T13:40:23.769Z,16.17
2022-10-07T13:43:01.039Z,16.17
2022-10-07T13:45:40.873Z,16.15
2022-10-07T13:48:26.277Z,16.12
2022-10-07T13:51:00.561Z,16.11
2022-10-07T13:53:36.073Z,16.12
2022-10-07T13:56:24.995Z,16.12
2022-10-07T13:58:58.782Z,16.14
2022-10-07T14:01:32.734Z,16.11
2022-10-07T14:04:12.109Z,16.08
2022-10-07T14:06:51.297Z,16.06
2022-10-07T14:09:33.919Z,16.03
2022-10-07T14:12:08.806Z,16.05
2022-10-07T14:14:43.324Z,16.08
2022-10-07T14:17:27.634Z,16.08
2022-10-07T14:20:05.759Z,16.03
2022-10-07T14:22:41.215Z,16.00
2022-10-07T14:25:21.929Z,16.01
2022-10-07T14:28:08.041Z,16.02
2022-10-07T14:30:59.290Z,15.98
2022-10-07T14:33:59.725Z,15.92
2022-10-07T14:36:32.354Z,15.86
2022-10-07T14:39:24.648Z,15.87
2022-10-07T14:41:59.046Z,15.84
2022-10-07T14:44:31.684Z,15.81
2022-10-07T14:47:15.722Z,15.79
2022-10-07T14:49:48.216Z,15.79
2022-10-07T14:52:29.027Z,15.77
2022-10-07T14:55:04.159Z,15.73
2022-10-07T14:57:36.252Z,15.71
2022-10-07T15:00:15.888Z,15.69
2022-10-07T15:02:48.129Z,15.71
2022-10-07T15:05:21.282Z,15.71
2022-10-07T15:08:21.397Z,15.69
2022-10-07T15:10:53.273Z,15.68
2022-10-07T15:13:28.362Z,15.68
2022-10-07T15:16:03.491Z,15.67
2022-10-07T15:18:37.831Z,15.65
2022-10-07T15:21:12.838Z,15.64
2022-10-07T15:23:45.324Z,15.61
2022-10-07T15:26:18.465Z,15.59
2022-10-07T15:28:55.259Z,15.58
2022-10-07T15:31:30.728Z,15.54
2022-10-07T15:34:03.003Z,15.50
2022-10-07T15:36:35.274Z,15.47
2022-10-07T15:39:10.431Z,15.44
2022-10-07T15:41:44.282Z,15.40
2022-10-07T15:44:22.431Z,15.35
2022-10-07T15:46:56.075Z,15.31
2022-10-07T15:49:32.231Z,15.26
2022-10-07T15:52:09.128Z,15.21
2022-10-07T15:54:41.389Z,15.16
2022-10-07T15:57:13.461Z,15.11
2022-10-07T15:59:46.014Z,15.05
2022-10-07T16:02:21.402Z,15.00
2022-10-07T16:04:53.876Z,14.94
2022-10-07T16:07:25.736Z,14.90
2022-10-07T16:10:02.227Z,14.84
2022-10-07T16:12:36.249Z,14.76
2022-10-07T16:15:10.792Z,14.70
2022-10-07T16:17:43.278Z,14.65
2022-10-07T16:20:18.579Z,14.59
2022-10-07T16:22:50.328Z,14.54
2022-10-07T16:25:22.227Z,14.47
2022-10-07T16:28:11.879Z,14.41
2022-10-07T16:30:51.284Z,14.33
2022-10-07T16:33:23.137Z,14.26
2022-10-07T16:35:55.338Z,14.20
2022-10-07T16:38:27.230Z,14.14
2022-10-07T16:40:58.947Z,14.08
2022-10-07T16:43:35.976Z,14.02
2022-10-07T16:46:12.628Z,13.95
2022-10-07T16:48:46.097Z,13.90
2022-10-07T16:51:20.100Z,13.85
2022-10-07T16:53:54.876Z,13.80
2022-10-07T16:56:26.834Z,13.74
2022-10-07T16:59:00.214Z,13.69
2022-10-07T17:01:34.148Z,13.63
2022-10-07T17:04:09.529Z,13.58
2022-10-07T17:06:44.230Z,13.53
2022-10-07T17:09:17.961Z,13.49
2022-10-07T17:11:50.170Z,13.44
2022-10-07T17:14:26.587Z,13.39
2022-10-07T17:17:05.273Z,13.35
2022-10-07T17:19:37.871Z,13.29
2022-10-07T17:22:10.464Z,13.26
2022-10-07T17:24:42.198Z,13.22
2022-10-07T17:27:30.833Z,13.20
2022-10-07T17:30:03.039Z,13.15
2022-10-07T17:32:34.890Z,13.11
2022-10-07T17:35:08.587Z,13.08
2022-10-07T17:37:40.341Z,13.04
2022-10-07T17:40:13.301Z,13.01
2022-10-07T17:42:45.591Z,12.97
2022-10-07T17:45:17.456Z,12.93
2022-10-07T17:47:49.426Z,12.90
2022-10-07T17:50:21.195Z,12.86
2022-10-07T17:52:53.100Z,12.83
2022-10-07T17:55:25.005Z,12.81
2022-10-07T17:57:56.883Z,12.77
2022-10-07T18:00:32.088Z,12.72
2022-10-07T18:03:04.955Z,12.69
2022-10-07T18:05:37.073Z,12.66
2022-10-07T18:08:11.636Z,12.64
2022-10-07T18:10:43.585Z,12.61
2022-10-07T18:13:33.432Z,12.61
2022-10-07T18:16:07.516Z,12.57
2022-10-07T18:19:06.658Z,12.55
2022-10-07T18:21:41.519Z,12.49
2022-10-07T18:24:13.551Z,12.47
2022-10-07T18:26:45.566Z,12.46
2022-10-07T18:29:18.555Z,12.45
2022-10-07T18:31:50.434Z,12.43
2022-10-07T18:34:22.300Z,12.42
2022-10-07T18:36:57.490Z,12.40
2022-10-07T18:39:30.347Z,12.38
2022-10-07T18:42:06.612Z,12.36
2022-10-07T18:45:00.555Z,12.34
2022-10-07T18:47:59.689Z,12.29
2022-10-07T18:50:33.752Z,12.24
2022-10-07T18:53:06.068Z,12.22
2022-10-07T18:55:41.281Z,12.21
2022-10-07T18:58:13.208Z,12.19
2022-10-07T19:00:45.910Z,12.18
2022-10-07T19:03:18.010Z,12.14
2022-10-07T19:05:50.019Z,12.13
2022-10-07T19:08:23.082Z,12.12
2022-10-07T19:10:57.318Z,12.11
2022-10-07T19:14:10.374Z,12.10
2022-10-07T19:16:45.949Z,12.03
2022-10-07T19:19:37.744Z,12.01
2022-10-07T19:22:19.956Z,11.99
2022-10-07T19:25:43.673Z,11.98
2022-10-07T19:28:23.361Z,11.93
2022-10-07T19:30:59.181Z,11.91
2022-10-07T19:33:31.703Z,11.90
2022-10-07T19:36:07.543Z,11.91
2022-10-07T19:38:44.213Z,11.91
2022-10-07T19:41:17.757Z,11.91
2022-10-07T19:43:50.170Z,11.91
2022-10-07T19:46:23.478Z,11.90
2022-10-07T19:48:57.022Z,11.89
2022-10-07T19:51:30.869Z,11.89
2022-10-07T19:54:10.187Z,11.87
2022-10-07T19:56:45.388Z,11.85
2022-10-07T19:59:17.334Z,11.83
2022-10-07T20:01:52.400Z,11.82
2022-10-07T20:04:24.662Z,11.80
2022-10-07T20:06:59.168Z,11.80
2022-10-07T20:09:31.088Z,11.80
2022-10-07T20:12:04.796Z,11.79
2022-10-07T20:14:36.637Z,11.78
2022-10-07T20:17:09.126Z,11.77
2022-10-07T20:19:40.938Z,11.76
2022-10-07T20:22:13.182Z,11.76
2022-10-07T20:24:44.960Z,11.75
2022-10-07T20:27:18.020Z,11.76
2022-10-07T20:30:06.804Z,11.76
2022-10-07T20:32:38.637Z,11.74
2022-10-07T20:35:12.280Z,11.74
2022-10-07T20:37:44.196Z,11.74
2022-10-07T20:40:34.473Z,11.74
2022-10-07T20:43:09.814Z,11.72
2022-10-07T20:45:56.301Z,11.70
2022-10-07T20:48:31.687Z,11.68
2022-10-07T20:51:10.625Z,11.67
2022-10-07T20:53:42.553Z,11.67
2022-10-07T20:56:14.683Z,11.65
2022-10-07T20:58:47.212Z,11.64
2022-10-07T21:01:20.473Z,11.63
2022-10-07T21:03:52.306Z,11.63
2022-10-07T21:06:24.393Z,11.61
2022-10-07T21:08:59.294Z,11.59
2022-10-07T21:11:32.362Z,11.55
2022-10-07T21:14:04.562Z,11.58
2022-10-07T21:16:36.900Z,11.57
2022-10-07T21:19:08.994Z,11.56
2022-10-07T21:21:41.202Z,11.58
2022-10-07T21:24:16.300Z,11.59
2022-10-07T21:26:48.266Z,11.60
2022-10-07T21:29:20.226Z,11.63
2022-10-07T21:31:53.329Z,11.64
2022-10-07T21:34:26.728Z,11.67
2022-10-07T21:36:59.189Z,11.70
2022-10-07T21:39:31.298Z,11.73
2022-10-07T21:42:03.135Z,11.76
2022-10-07T21:44:35.661Z,11.76
2022-10-07T21:47:07.505Z,11.80
2022-10-07T21:49:39.358Z,11.81
2022-10-07T21:52:11.176Z,11.84
2022-10-07T21:54:43.059Z,11.86
2022-10-07T21:57:14.858Z,11.87
2022-10-07T21:59:47.057Z,11.88
2022-10-07T22:02:18.951Z,11.89
2022-10-07T22:04:51.029Z,11.88
2022-10-07T22:07:40.529Z,11.87
2022-10-07T22:10:12.736Z,11.85
2022-10-07T22:12:46.125Z,11.83
2022-10-07T22:15:18.288Z,11.83
2022-10-07T22:17:50.809Z,11.82
2022-10-07T22:20:22.566Z,11.80
2022-10-07T22:22:59.115Z,11.79
2022-10-07T22:25:33.562Z,11.78
2022-10-07T22:28:05.537Z,11.75
2022-10-07T22:30:42.138Z,11.74
2022-10-07T22:33:15.438Z,11.73
2022-10-07T22:35:47.690Z,11.71
2022-10-07T22:38:19.924Z,11.68
2022-10-07T22:40:51.804Z,11.65
2022-10-07T22:43:24.714Z,11.63
2022-10-07T22:46:00.751Z,11.61
2022-10-07T22:48:34.222Z,11.60
2022-10-07T22:51:08.562Z,11.59
2022-10-07T22:53:43.291Z,11.59
2022-10-07T22:56:17.625Z,11.58
2022-10-07T22:58:54.480Z,11.57
2022-10-07T23:01:29.414Z,11.55
2022-10-07T23:04:03.183Z,11.55
2022-10-07T23:06:37.202Z,11.53
2022-10-07T23:09:09.138Z,11.52
2022-10-07T23:11:41.269Z,11.52
2022-10-07T23:14:13.109Z,11.52
2022-10-07T23:16:45.057Z,11.51
2022-10-07T23:19:17.622Z,11.51
2022-10-07T23:21:49.433Z,11.48
2022-10-07T23:24:21.271Z,11.45
2022-10-07T23:26:53.075Z,11.43
2022-10-07T23:29:26.704Z,11.43
2022-10-07T23:31:58.545Z,11.43
2022-10-07T23:34:30.390Z,11.44
2022-10-07T23:37:03.156Z,11.45
2022-10-07T23:39:35.205Z,11.46
2022-10-07T23:42:07.225Z,11.46
2022-10-07T23:44:39.473Z,11.49
2022-10-07T23:47:11.245Z,11.51
2022-10-07T23:49:43.043Z,11.53
2022-10-07T23:52:16.477Z,11.55
2022-10-07T23:54:48.256Z,11.59
2022-10-07T23:57:20.019Z,11.62
2022-10-07T23:59:51.749Z,11.65
